createdAt,value
2022-11-22T00:00:51.867Z,0.00
2022-11-22T00:01:51.971Z,0.00
2022-11-22T00:02:51.877Z,0.00
2022-11-22T00:03:51.852Z,0.00
2022-11-22T00:04:51.855Z,0.00
2022-11-22T00:05:51.867Z,0.00
2022-11-22T00:06:51.859Z,0.00
2022-11-22T00:07:52.024Z,0.00
2022-11-22T00:08:51.875Z,0.00
2022-11-22T00:09:51.831Z,0.00
2022-11-22T00:10:51.840Z,0.00
2022-11-22T00:11:51.824Z,0.00
2022-11-22T00:12:51.826Z,0.00
2022-11-22T00:13:51.813Z,0.00
2022-11-22T00:14:56.672Z,0.00
2022-11-22T00:15:51.811Z,0.00
2022-11-22T00:16:51.814Z,0.00
2022-11-22T00:17:51.800Z,0.00
2022-11-22T00:18:51.812Z,0.00
2022-11-22T00:19:51.790Z,0.00
2022-11-22T00:20:51.791Z,0.00
2022-11-22T00:21:51.787Z,0.00
2022-11-22T00:22:51.800Z,0.00
2022-11-22T00:23:51.774Z,0.00
2022-11-22T00:24:51.812Z,0.00
2022-11-22T00:25:51.789Z,0.00
2022-11-22T00:26:51.773Z,0.00
2022-11-22T00:27:51.776Z,0.00
2022-11-22T00:28:51.761Z,0.00
2022-11-22T00:29:51.772Z,0.00
2022-11-22T00:30:51.936Z,0.00
2022-11-22T00:31:51.797Z,0.00
2022-11-22T00:32:51.744Z,0.00
2022-11-22T00:33:51.751Z,0.00
2022-11-22T00:34:51.757Z,0.00
2022-11-22T00:35:51.744Z,0.00
2022-11-22T00:36:51.732Z,0.00
2022-11-22T00:37:51.747Z,0.00
2022-11-22T00:38:51.742Z,0.00
2022-11-22T00:39:51.730Z,0.00
2022-11-22T00:40:51.753Z,0.00
2022-11-22T00:41:51.723Z,0.00
2022-11-22T00:42:51.706Z,0.00
2022-11-22T00:43:51.705Z,0.00
2022-11-22T00:44:51.708Z,0.00
2022-11-22T00:45:51.691Z,0.00
2022-11-22T00:46:51.705Z,0.00
2022-11-22T00:47:51.687Z,0.00
2022-11-22T00:48:51.697Z,0.00
2022-11-22T00:49:51.678Z,0.00
2022-11-22T00:50:51.683Z,0.00
2022-11-22T00:51:51.672Z,0.00
2022-11-22T00:52:51.700Z,0.00
2022-11-22T00:53:51.661Z,0.00
2022-11-22T00:54:55.053Z,0.00
2022-11-22T00:55:51.667Z,0.00
2022-11-22T00:56:51.691Z,0.00
2022-11-22T00:57:51.660Z,0.00
2022-11-22T00:58:51.670Z,0.00
2022-11-22T00:59:51.649Z,0.00
2022-11-22T01:00:56.322Z,0.00
2022-11-22T01:01:51.637Z,0.00
2022-11-22T01:02:51.630Z,0.00
2022-11-22T01:03:51.646Z,0.00
2022-11-22T01:04:51.638Z,0.00
2022-11-22T01:05:51.631Z,0.00
2022-11-22T01:06:51.616Z,0.00
2022-11-22T01:07:51.648Z,0.00
2022-11-22T01:08:51.629Z,0.00
2022-11-22T01:09:51.601Z,0.00
2022-11-22T01:10:51.612Z,0.00
2022-11-22T01:11:51.609Z,0.00
2022-11-22T01:12:51.643Z,0.00
2022-11-22T01:13:51.594Z,0.00
2022-11-22T01:14:51.598Z,0.00
2022-11-22T01:15:51.588Z,0.00
2022-11-22T01:16:51.590Z,0.00
2022-11-22T01:17:51.591Z,0.00
2022-11-22T01:18:51.592Z,0.00
2022-11-22T01:19:51.573Z,0.00
2022-11-22T01:20:51.577Z,0.00
2022-11-22T01:21:51.571Z,0.00
2022-11-22T01:22:51.574Z,0.00
2022-11-22T01:23:51.557Z,0.00
2022-11-22T01:24:51.564Z,0.00
2022-11-22T01:25:51.549Z,0.00
2022-11-22T01:26:51.538Z,0.00
2022-11-22T01:27:51.543Z,0.00
2022-11-22T01:28:51.568Z,0.00
2022-11-22T01:29:51.548Z,0.00
2022-11-22T01:30:51.525Z,0.00
2022-11-22T01:31:51.515Z,0.00
2022-11-22T01:32:51.530Z,0.00
2022-11-22T01:33:51.518Z,0.00
2022-11-22T01:34:51.504Z,0.00
2022-11-22T01:35:51.501Z,0.00
2022-11-22T01:36:51.516Z,0.00
2022-11-22T01:37:51.494Z,0.00
2022-11-22T01:38:51.500Z,0.00
2022-11-22T01:39:51.497Z,0.00
2022-11-22T01:40:51.498Z,0.00
2022-11-22T01:41:51.495Z,0.00
2022-11-22T01:42:51.492Z,0.00
2022-11-22T01:43:51.488Z,0.00
2022-11-22T01:44:51.497Z,0.00
2022-11-22T01:45:51.473Z,0.00
2022-11-22T01:46:51.471Z,0.00
2022-11-22T01:47:51.466Z,0.00
2022-11-22T01:48:51.479Z,0.00
2022-11-22T01:49:51.446Z,0.00
2022-11-22T01:50:51.446Z,0.00
2022-11-22T01:51:51.454Z,0.00
2022-11-22T01:52:51.460Z,0.00
2022-11-22T01:53:51.443Z,0.00
2022-11-22T01:54:51.447Z,0.00
2022-11-22T01:55:51.421Z,0.00
2022-11-22T01:56:51.439Z,0.00
2022-11-22T01:57:51.439Z,0.00
2022-11-22T01:58:51.423Z,0.00
2022-11-22T01:59:51.404Z,0.00
2022-11-22T02:00:51.499Z,0.00
2022-11-22T02:01:51.400Z,0.00
2022-11-22T02:02:51.408Z,0.00
2022-11-22T02:03:51.392Z,0.00
2022-11-22T02:04:51.406Z,0.00
2022-11-22T02:05:51.385Z,0.00
2022-11-22T02:06:51.396Z,0.00
2022-11-22T02:07:51.518Z,0.00
2022-11-22T02:08:51.395Z,0.00
2022-11-22T02:09:51.387Z,0.00
2022-11-22T02:10:51.374Z,0.00
2022-11-22T02:11:51.364Z,0.00
2022-11-22T02:12:51.361Z,0.00
2022-11-22T02:13:51.365Z,0.00
2022-11-22T02:14:51.368Z,0.00
2022-11-22T02:15:51.357Z,0.00
2022-11-22T02:16:51.375Z,0.00
2022-11-22T02:17:51.334Z,0.00
2022-11-22T02:18:51.354Z,0.00
2022-11-22T02:19:51.345Z,0.00
2022-11-22T02:20:51.332Z,0.00
2022-11-22T02:21:51.329Z,0.00
2022-11-22T02:22:51.338Z,0.00
2022-11-22T02:23:51.331Z,0.00
2022-11-22T02:24:51.324Z,0.00
2022-11-22T02:25:51.308Z,0.00
2022-11-22T02:26:51.318Z,0.00
2022-11-22T02:27:51.309Z,0.00
2022-11-22T02:28:51.300Z,0.00
2022-11-22T02:29:51.287Z,0.00
2022-11-22T02:30:51.291Z,0.00
2022-11-22T02:31:51.296Z,0.00
2022-11-22T02:32:51.324Z,0.00
2022-11-22T02:33:51.295Z,0.00
2022-11-22T02:34:51.291Z,0.00
2022-11-22T02:35:51.265Z,0.00
2022-11-22T02:36:51.280Z,0.00
2022-11-22T02:37:51.257Z,0.00
2022-11-22T02:38:51.264Z,0.00
2022-11-22T02:39:51.267Z,0.00
2022-11-22T02:40:51.249Z,0.00
2022-11-22T02:41:51.261Z,0.00
2022-11-22T02:42:51.243Z,0.00
2022-11-22T02:43:51.253Z,0.00
2022-11-22T02:44:51.255Z,0.00
2022-11-22T02:45:51.224Z,0.00
2022-11-22T02:46:51.224Z,0.00
2022-11-22T02:47:51.238Z,0.00
2022-11-22T02:48:51.270Z,0.00
2022-11-22T02:49:51.222Z,0.00
2022-11-22T02:50:51.225Z,0.00
2022-11-22T02:51:51.220Z,0.00
2022-11-22T02:52:51.224Z,0.00
2022-11-22T02:53:51.213Z,0.00
2022-11-22T02:54:51.210Z,0.00
2022-11-22T02:55:51.187Z,0.00
2022-11-22T02:56:51.200Z,0.00
2022-11-22T02:57:51.178Z,0.00
2022-11-22T02:58:51.201Z,0.00
2022-11-22T02:59:51.189Z,0.00
2022-11-22T03:00:51.206Z,0.00
2022-11-22T03:01:51.179Z,0.00
2022-11-22T03:02:51.182Z,0.00
2022-11-22T03:03:51.188Z,0.00
2022-11-22T03:04:51.175Z,0.00
2022-11-22T03:05:51.170Z,0.00
2022-11-22T03:06:51.160Z,0.00
2022-11-22T03:07:51.189Z,0.00
2022-11-22T03:08:56.117Z,0.00
2022-11-22T03:09:51.142Z,0.00
2022-11-22T03:10:51.132Z,0.00
2022-11-22T03:11:51.130Z,0.00
2022-11-22T03:12:51.145Z,0.00
2022-11-22T03:13:51.123Z,0.00
2022-11-22T03:14:51.117Z,0.00
2022-11-22T03:15:51.120Z,0.00
2022-11-22T03:16:51.144Z,0.00
2022-11-22T03:17:51.117Z,0.00
2022-11-22T03:18:51.112Z,0.00
2022-11-22T03:19:51.106Z,0.00
2022-11-22T03:20:51.240Z,0.00
2022-11-22T03:21:51.090Z,0.00
2022-11-22T03:22:51.097Z,0.00
2022-11-22T03:23:51.079Z,0.00
2022-11-22T03:24:51.082Z,0.00
2022-11-22T03:25:51.081Z,0.00
2022-11-22T03:26:51.069Z,0.00
2022-11-22T03:27:51.074Z,0.00
2022-11-22T03:28:51.098Z,0.00
2022-11-22T03:29:51.051Z,0.00
2022-11-22T03:30:51.069Z,0.00
2022-11-22T03:31:51.051Z,0.00
2022-11-22T03:32:51.056Z,0.00
2022-11-22T03:33:51.034Z,0.00
2022-11-22T03:34:51.048Z,0.00
2022-11-22T03:35:51.045Z,0.00
2022-11-22T03:36:51.069Z,0.00
2022-11-22T03:37:51.022Z,0.00
2022-11-22T03:38:51.036Z,0.00
2022-11-22T03:39:51.034Z,0.00
2022-11-22T03:40:51.032Z,0.00
2022-11-22T03:41:51.010Z,0.00
2022-11-22T03:42:51.008Z,0.00
2022-11-22T03:43:51.000Z,0.00
2022-11-22T03:44:50.997Z,0.00
2022-11-22T03:45:51.001Z,0.00
2022-11-22T03:46:50.990Z,0.00
2022-11-22T03:47:50.984Z,0.00
2022-11-22T03:48:50.992Z,0.00
2022-11-22T03:49:50.992Z,0.00
2022-11-22T03:50:50.989Z,0.00
2022-11-22T03:51:50.988Z,0.00
2022-11-22T03:52:51.015Z,0.00
2022-11-22T03:53:50.976Z,0.00
2022-11-22T03:54:50.962Z,0.00
2022-11-22T03:55:50.963Z,0.00
2022-11-22T03:56:50.969Z,0.00
2022-11-22T03:57:50.958Z,0.00
2022-11-22T03:58:50.953Z,0.00
2022-11-22T03:59:50.938Z,0.00
2022-11-22T04:00:50.952Z,0.00
2022-11-22T04:01:51.057Z,0.00
2022-11-22T04:02:50.952Z,0.00
2022-11-22T04:03:50.918Z,0.00
2022-11-22T04:04:50.932Z,0.00
2022-11-22T04:05:50.919Z,0.00
2022-11-22T04:06:50.931Z,0.00
2022-11-22T04:07:50.967Z,0.00
2022-11-22T04:08:51.197Z,0.00
2022-11-22T04:09:50.894Z,0.00
2022-11-22T04:10:50.895Z,0.00
2022-11-22T04:11:50.894Z,0.00
2022-11-22T04:12:50.887Z,0.00
2022-11-22T04:13:50.894Z,0.00
2022-11-22T04:14:50.901Z,0.00
2022-11-22T04:15:50.887Z,0.00
2022-11-22T04:16:50.867Z,0.00
2022-11-22T04:17:50.880Z,0.00
2022-11-22T04:18:50.860Z,0.00
2022-11-22T04:19:50.880Z,0.00
2022-11-22T04:20:50.863Z,0.00
2022-11-22T04:21:50.849Z,0.00
2022-11-22T04:22:50.846Z,0.00
2022-11-22T04:23:50.858Z,0.00
2022-11-22T04:24:50.864Z,0.00
2022-11-22T04:25:50.845Z,0.00
2022-11-22T04:26:50.830Z,0.00
2022-11-22T04:27:50.832Z,0.00
2022-11-22T04:29:11.044Z,0.00
2022-11-22T04:29:50.827Z,0.00
2022-11-22T04:30:50.826Z,0.00
2022-11-22T04:31:50.827Z,0.00
2022-11-22T04:32:50.821Z,0.00
2022-11-22T04:33:50.810Z,0.00
2022-11-22T04:34:50.791Z,0.00
2022-11-22T04:35:50.794Z,0.00
2022-11-22T04:36:50.789Z,0.00
2022-11-22T04:37:50.794Z,0.00
2022-11-22T04:38:50.800Z,0.00
2022-11-22T04:39:50.798Z,0.00
2022-11-22T04:40:50.804Z,0.00
2022-11-22T04:41:50.783Z,0.00
2022-11-22T04:42:50.764Z,0.00
2022-11-22T04:43:50.788Z,0.00
2022-11-22T04:44:50.768Z,0.00
2022-11-22T04:45:50.768Z,0.00
2022-11-22T04:46:50.749Z,0.00
2022-11-22T04:47:50.768Z,0.00
2022-11-22T04:48:50.751Z,0.00
2022-11-22T04:49:50.737Z,0.00
2022-11-22T04:50:50.732Z,0.00
2022-11-22T04:51:50.730Z,0.00
2022-11-22T04:52:50.722Z,0.00
2022-11-22T04:53:50.741Z,0.00
2022-11-22T04:54:50.715Z,0.00
2022-11-22T04:55:50.719Z,0.00
2022-11-22T04:56:50.737Z,0.00
2022-11-22T04:57:55.961Z,0.00
2022-11-22T04:58:50.709Z,0.00
2022-11-22T04:59:50.711Z,0.00
2022-11-22T05:00:50.763Z,0.00
2022-11-22T05:01:50.712Z,0.00
2022-11-22T05:02:50.700Z,0.00
2022-11-22T05:03:50.699Z,0.00
2022-11-22T05:04:51.027Z,0.00
2022-11-22T05:05:50.676Z,0.00
2022-11-22T05:06:50.667Z,0.00
2022-11-22T05:07:50.729Z,0.00
2022-11-22T05:08:50.661Z,0.00
2022-11-22T05:09:50.656Z,0.00
2022-11-22T05:10:50.668Z,0.00
2022-11-22T05:11:50.670Z,0.00
2022-11-22T05:12:50.679Z,0.00
2022-11-22T05:13:50.655Z,0.00
2022-11-22T05:14:50.654Z,0.00
2022-11-22T05:15:50.645Z,0.00
2022-11-22T05:16:50.632Z,0.00
2022-11-22T05:17:50.639Z,0.00
2022-11-22T05:18:50.629Z,0.00
2022-11-22T05:19:50.620Z,0.00
2022-11-22T05:20:50.620Z,0.00
2022-11-22T05:21:50.623Z,0.00
2022-11-22T05:22:50.612Z,0.00
2022-11-22T05:23:50.621Z,0.00
2022-11-22T05:24:50.614Z,0.00
2022-11-22T05:25:50.620Z,0.00
2022-11-22T05:26:50.585Z,0.00
2022-11-22T05:27:50.585Z,0.00
2022-11-22T05:28:50.651Z,0.00
2022-11-22T05:29:50.577Z,0.00
2022-11-22T05:30:50.589Z,0.00
2022-11-22T05:31:51.572Z,0.00
2022-11-22T05:32:50.562Z,0.00
2022-11-22T05:33:50.566Z,0.00
2022-11-22T05:34:50.567Z,0.00
2022-11-22T05:35:50.554Z,0.00
2022-11-22T05:36:50.555Z,0.00
2022-11-22T05:37:50.558Z,0.00
2022-11-22T05:38:50.551Z,0.00
2022-11-22T05:39:50.555Z,0.00
2022-11-22T05:40:50.544Z,0.00
2022-11-22T05:41:50.547Z,0.00
2022-11-22T05:42:50.536Z,0.00
2022-11-22T05:43:50.536Z,0.00
2022-11-22T05:44:50.548Z,0.00
2022-11-22T05:45:50.526Z,0.00
2022-11-22T05:46:50.515Z,0.00
2022-11-22T05:47:50.502Z,0.00
2022-11-22T05:48:50.507Z,0.00
2022-11-22T05:49:50.513Z,0.00
2022-11-22T05:50:50.488Z,0.00
2022-11-22T05:51:50.494Z,0.00
2022-11-22T05:52:50.481Z,0.00
2022-11-22T05:53:50.494Z,0.00
2022-11-22T05:54:50.469Z,0.00
2022-11-22T05:55:50.468Z,0.00
2022-11-22T05:56:50.470Z,0.00
2022-11-22T05:57:50.463Z,0.00
2022-11-22T05:58:50.468Z,0.00
2022-11-22T05:59:50.459Z,0.00
2022-11-22T06:00:50.467Z,0.00
2022-11-22T06:01:50.535Z,0.00
2022-11-22T06:02:50.458Z,0.00
2022-11-22T06:03:50.464Z,0.00
2022-11-22T06:04:50.429Z,0.00
2022-11-22T06:05:50.452Z,0.00
2022-11-22T06:06:50.422Z,0.00
2022-11-22T06:07:50.470Z,0.00
2022-11-22T06:08:50.431Z,0.00
2022-11-22T06:09:50.427Z,0.00
2022-11-22T06:10:50.408Z,0.00
2022-11-22T06:11:50.419Z,0.00
2022-11-22T06:12:50.411Z,0.00
2022-11-22T06:13:50.409Z,0.00
2022-11-22T06:14:50.401Z,0.00
2022-11-22T06:15:50.400Z,0.00
2022-11-22T06:16:50.400Z,0.00
2022-11-22T06:17:50.399Z,0.00
2022-11-22T06:18:50.375Z,0.00
2022-11-22T06:19:50.385Z,0.00
2022-11-22T06:20:50.377Z,0.00
2022-11-22T06:21:50.370Z,0.00
2022-11-22T06:22:50.358Z,0.00
2022-11-22T06:23:50.357Z,0.00
2022-11-22T06:24:50.360Z,0.00
2022-11-22T06:25:50.348Z,0.00
2022-11-22T06:26:50.341Z,0.00
2022-11-22T06:27:50.357Z,0.00
2022-11-22T06:28:50.343Z,0.00
2022-11-22T06:29:50.349Z,8.00
2022-11-22T06:30:50.339Z,4.00
2022-11-22T06:31:50.332Z,4.00
2022-11-22T06:32:50.358Z,4.00
2022-11-22T06:33:50.315Z,4.00
2022-11-22T06:34:50.316Z,4.00
2022-11-22T06:35:50.324Z,8.00
2022-11-22T06:36:50.312Z,8.00
2022-11-22T06:37:50.297Z,8.00
2022-11-22T06:38:50.306Z,4.00
2022-11-22T06:39:50.299Z,4.00
2022-11-22T06:40:50.296Z,4.00
2022-11-22T06:41:50.303Z,4.00
2022-11-22T06:42:50.277Z,4.00
2022-11-22T06:43:50.301Z,4.00
2022-11-22T06:44:50.273Z,8.00
2022-11-22T06:45:50.274Z,8.00
2022-11-22T06:46:50.266Z,8.00
2022-11-22T06:47:50.263Z,0.00
2022-11-22T06:48:50.282Z,4.00
2022-11-22T06:49:50.258Z,4.00
2022-11-22T06:50:50.249Z,4.00
2022-11-22T06:51:50.248Z,4.00
2022-11-22T06:52:50.257Z,8.00
2022-11-22T06:53:50.267Z,8.00
2022-11-22T06:54:50.237Z,4.00
2022-11-22T06:55:51.404Z,4.00
2022-11-22T06:56:50.231Z,8.00
2022-11-22T06:57:50.229Z,8.00
2022-11-22T06:58:50.226Z,8.00
2022-11-22T06:59:50.224Z,8.00
2022-11-22T07:00:50.230Z,8.00
2022-11-22T07:01:50.382Z,8.00
2022-11-22T07:02:50.211Z,8.00
2022-11-22T07:03:50.219Z,12.00
2022-11-22T07:05:17.216Z,12.00
2022-11-22T07:05:50.235Z,12.00
2022-11-22T07:06:50.199Z,12.00
2022-11-22T07:07:50.269Z,12.00
2022-11-22T07:08:50.194Z,12.00
2022-11-22T07:09:56.161Z,16.00
2022-11-22T07:10:50.194Z,12.00
2022-11-22T07:11:50.188Z,16.00
2022-11-22T07:12:50.178Z,16.00
2022-11-22T07:13:50.181Z,16.00
2022-11-22T07:14:50.186Z,20.00
2022-11-22T07:15:50.173Z,20.00
2022-11-22T07:16:50.176Z,16.00
2022-11-22T07:17:50.163Z,20.00
2022-11-22T07:18:50.164Z,20.00
2022-11-22T07:19:50.166Z,20.00
2022-11-22T07:20:50.183Z,24.00
2022-11-22T07:21:50.168Z,28.00
2022-11-22T07:22:50.155Z,28.00
2022-11-22T07:23:50.159Z,28.00
2022-11-22T07:24:50.153Z,32.00
2022-11-22T07:25:50.150Z,28.00
2022-11-22T07:26:50.143Z,32.00
2022-11-22T07:27:50.142Z,32.00
2022-11-22T07:28:50.132Z,36.00
2022-11-22T07:29:50.128Z,36.00
2022-11-22T07:30:50.120Z,36.00
2022-11-22T07:31:50.139Z,40.00
2022-11-22T07:32:50.127Z,44.00
2022-11-22T07:33:50.123Z,44.00
2022-11-22T07:34:50.116Z,44.00
2022-11-22T07:35:50.119Z,48.00
2022-11-22T07:36:53.145Z,48.00
2022-11-22T07:37:50.108Z,48.00
2022-11-22T07:38:50.092Z,52.00
2022-11-22T07:39:50.114Z,56.00
2022-11-22T07:40:50.119Z,64.00
2022-11-22T07:41:50.093Z,68.00
2022-11-22T07:42:54.092Z,68.00
2022-11-22T07:43:50.092Z,76.00
2022-11-22T07:44:50.086Z,72.00
2022-11-22T07:45:50.088Z,72.00
2022-11-22T07:46:50.074Z,76.00
2022-11-22T07:47:50.101Z,80.00
2022-11-22T07:48:50.061Z,80.00
2022-11-22T07:49:50.075Z,84.00
2022-11-22T07:50:50.066Z,84.00
2022-11-22T07:51:50.066Z,80.00
2022-11-22T07:52:50.117Z,80.00
2022-11-22T07:53:50.071Z,84.00
2022-11-22T07:54:50.069Z,76.00
2022-11-22T07:55:50.046Z,68.00
2022-11-22T07:56:50.064Z,72.00
2022-11-22T07:57:50.043Z,72.00
2022-11-22T07:58:50.029Z,76.00
2022-11-22T07:59:50.030Z,80.00
2022-11-22T08:00:50.039Z,80.00
2022-11-22T08:01:50.133Z,76.00
2022-11-22T08:02:50.023Z,76.00
2022-11-22T08:03:50.024Z,72.00
2022-11-22T08:04:50.006Z,72.00
2022-11-22T08:05:50.010Z,72.00
2022-11-22T08:06:50.018Z,76.00
2022-11-22T08:07:50.166Z,76.00
2022-11-22T08:08:50.108Z,76.00
2022-11-22T08:09:50.001Z,80.00
2022-11-22T08:10:49.991Z,80.00
2022-11-22T08:11:49.996Z,80.00
2022-11-22T08:12:50.319Z,80.00
2022-11-22T08:13:49.992Z,80.00
2022-11-22T08:14:50.356Z,84.00
2022-11-22T08:15:51.549Z,84.00
2022-11-22T08:16:49.980Z,84.00
2022-11-22T08:17:50.005Z,84.00
2022-11-22T08:18:49.972Z,84.00
2022-11-22T08:19:49.977Z,88.00
2022-11-22T08:20:49.964Z,84.00
2022-11-22T08:21:52.725Z,88.00
2022-11-22T08:22:49.957Z,88.00
2022-11-22T08:23:49.953Z,88.00
2022-11-22T08:24:50.063Z,88.00
2022-11-22T08:25:49.942Z,88.00
2022-11-22T08:26:49.940Z,88.00
2022-11-22T08:27:49.939Z,88.00
2022-11-22T08:28:49.932Z,88.00
2022-11-22T08:29:49.931Z,88.00
2022-11-22T08:30:49.934Z,88.00
2022-11-22T08:31:49.925Z,92.00
2022-11-22T08:32:49.921Z,100.00
2022-11-22T08:33:49.908Z,104.00
2022-11-22T08:34:49.919Z,116.00
2022-11-22T08:35:49.911Z,120.00
2022-11-22T08:36:49.905Z,120.00
2022-11-22T08:37:49.902Z,124.00
2022-11-22T08:38:49.904Z,124.00
2022-11-22T08:39:49.896Z,108.00
2022-11-22T08:40:50.020Z,104.00
2022-11-22T08:41:49.891Z,100.00
2022-11-22T08:42:50.156Z,104.00
2022-11-22T08:43:51.271Z,116.00
2022-11-22T08:44:49.883Z,128.00
2022-11-22T08:45:49.904Z,140.00
2022-11-22T08:46:49.867Z,156.00
2022-11-22T08:47:49.863Z,168.00
2022-11-22T08:48:49.864Z,184.00
2022-11-22T08:49:49.858Z,188.00
2022-11-22T08:50:49.858Z,188.00
2022-11-22T08:51:49.848Z,184.00
2022-11-22T08:52:49.877Z,192.00
2022-11-22T08:53:49.861Z,208.00
2022-11-22T08:54:49.841Z,224.00
2022-11-22T08:55:49.845Z,236.00
2022-11-22T08:56:49.955Z,244.00
2022-11-22T08:57:49.824Z,240.00
2022-11-22T08:58:49.897Z,224.00
2022-11-22T08:59:49.819Z,208.00
2022-11-22T09:00:49.831Z,224.00
2022-11-22T09:01:49.904Z,240.00
2022-11-22T09:02:49.819Z,232.00
2022-11-22T09:03:49.808Z,224.00
2022-11-22T09:04:49.814Z,212.00
2022-11-22T09:09:02.951Z,244.00
2022-11-22T09:09:49.832Z,248.00
2022-11-22T09:10:49.792Z,252.00
2022-11-22T09:11:49.776Z,248.00
2022-11-22T09:12:49.899Z,240.00
2022-11-22T09:13:49.770Z,224.00
2022-11-22T09:14:49.773Z,216.00
2022-11-22T09:15:49.767Z,232.00
2022-11-22T09:16:49.770Z,252.00
2022-11-22T09:17:49.756Z,256.00
2022-11-22T09:18:49.763Z,256.00
2022-11-22T09:19:49.748Z,260.00
2022-11-22T09:20:49.763Z,260.00
2022-11-22T09:21:49.741Z,264.00
2022-11-22T09:22:49.778Z,280.00
2022-11-22T09:23:50.130Z,296.00
2022-11-22T09:24:49.742Z,308.00
2022-11-22T09:25:49.724Z,276.00
2022-11-22T09:26:49.758Z,244.00
2022-11-22T09:27:49.722Z,232.00
2022-11-22T09:28:49.849Z,232.00
2022-11-22T09:29:50.024Z,236.00
2022-11-22T09:30:49.724Z,256.00
2022-11-22T09:31:49.722Z,296.00
2022-11-22T09:32:49.705Z,304.00
2022-11-22T09:33:49.719Z,320.00
2022-11-22T09:34:49.703Z,324.00
2022-11-22T09:35:49.704Z,304.00
2022-11-22T09:36:49.693Z,284.00
2022-11-22T09:37:49.692Z,304.00
2022-11-22T09:38:49.683Z,376.00
2022-11-22T09:39:49.682Z,332.00
2022-11-22T09:40:49.676Z,320.00
2022-11-22T09:41:49.677Z,300.00
2022-11-22T09:42:49.678Z,292.00
2022-11-22T09:43:49.684Z,268.00
2022-11-22T09:44:49.778Z,260.00
2022-11-22T09:45:49.655Z,272.00
2022-11-22T09:46:49.667Z,212.00
2022-11-22T09:47:49.659Z,164.00
2022-11-22T09:48:49.655Z,200.00
2022-11-22T09:49:49.645Z,216.00
2022-11-22T09:50:49.653Z,224.00
2022-11-22T09:51:49.641Z,228.00
2022-11-22T09:52:49.638Z,176.00
2022-11-22T09:53:49.637Z,164.00
2022-11-22T09:54:49.628Z,156.00
2022-11-22T09:55:49.629Z,180.00
2022-11-22T09:56:49.618Z,188.00
2022-11-22T09:57:50.437Z,144.00
2022-11-22T09:58:49.632Z,176.00
2022-11-22T09:59:49.623Z,180.00
2022-11-22T10:00:52.440Z,224.00
2022-11-22T10:01:49.664Z,284.00
2022-11-22T10:03:00.006Z,276.00
2022-11-22T10:03:49.603Z,196.00
2022-11-22T10:04:49.599Z,160.00
2022-11-22T10:05:49.585Z,136.00
2022-11-22T10:06:49.588Z,112.00
2022-11-22T10:07:49.712Z,108.00
2022-11-22T10:08:49.587Z,112.00
2022-11-22T10:09:49.577Z,120.00
2022-11-22T10:10:49.581Z,140.00
2022-11-22T10:11:49.565Z,168.00
2022-11-22T10:12:49.566Z,148.00
2022-11-22T10:13:49.589Z,156.00
2022-11-22T10:14:49.565Z,160.00
2022-11-22T10:15:49.847Z,152.00
2022-11-22T10:16:49.684Z,176.00
2022-11-22T10:17:49.547Z,184.00
2022-11-22T10:18:49.558Z,208.00
2022-11-22T10:19:49.550Z,236.00
2022-11-22T10:20:49.557Z,264.00
2022-11-22T10:21:49.529Z,300.00
2022-11-22T10:22:49.530Z,316.00
2022-11-22T10:23:49.553Z,328.00
2022-11-22T10:24:49.551Z,348.00
2022-11-22T10:25:49.539Z,348.00
2022-11-22T10:26:49.542Z,336.00
2022-11-22T10:27:49.519Z,340.00
2022-11-22T10:28:49.545Z,332.00
2022-11-22T10:29:49.514Z,336.00
2022-11-22T10:30:49.529Z,340.00
2022-11-22T10:31:49.503Z,336.00
2022-11-22T10:32:49.614Z,332.00
2022-11-22T10:33:49.491Z,320.00
2022-11-22T10:34:49.497Z,336.00
2022-11-22T10:35:49.496Z,324.00
2022-11-22T10:36:49.491Z,304.00
2022-11-22T10:37:49.474Z,300.00
2022-11-22T10:38:49.511Z,296.00
2022-11-22T10:39:49.485Z,276.00
2022-11-22T10:40:49.483Z,248.00
2022-11-22T10:41:49.481Z,236.00
2022-11-22T10:42:49.488Z,232.00
2022-11-22T10:43:49.454Z,248.00
2022-11-22T10:44:49.463Z,264.00
2022-11-22T10:45:49.456Z,280.00
2022-11-22T10:46:55.218Z,276.00
2022-11-22T10:47:49.444Z,272.00
2022-11-22T10:48:49.560Z,300.00
2022-11-22T10:49:49.439Z,300.00
2022-11-22T10:50:49.450Z,300.00
2022-11-22T10:51:49.455Z,320.00
2022-11-22T10:52:49.430Z,348.00
2022-11-22T10:53:49.461Z,356.00
2022-11-22T10:54:49.449Z,348.00
2022-11-22T10:55:49.430Z,404.00
2022-11-22T10:56:49.460Z,380.00
2022-11-22T10:57:49.424Z,352.00
2022-11-22T10:58:49.404Z,316.00
2022-11-22T10:59:49.397Z,280.00
2022-11-22T11:00:49.530Z,276.00
2022-11-22T11:01:49.390Z,252.00
2022-11-22T11:02:49.399Z,256.00
2022-11-22T11:03:49.413Z,276.00
2022-11-22T11:04:49.510Z,340.00
2022-11-22T11:06:15.625Z,360.00
2022-11-22T11:07:10.962Z,312.00
2022-11-22T11:07:49.574Z,296.00
2022-11-22T11:10:49.478Z,328.00
2022-11-22T11:11:49.377Z,328.00
2022-11-22T11:12:49.355Z,352.00
2022-11-22T11:13:49.347Z,376.00
2022-11-22T11:14:49.350Z,376.00
2022-11-22T11:15:55.578Z,360.00
2022-11-22T11:16:49.343Z,356.00
2022-11-22T11:17:49.338Z,352.00
2022-11-22T11:18:49.339Z,308.00
2022-11-22T11:19:49.337Z,288.00
2022-11-22T11:20:49.460Z,252.00
2022-11-22T11:21:49.318Z,260.00
2022-11-22T11:23:13.706Z,316.00
2022-11-22T11:23:49.313Z,340.00
2022-11-22T11:24:49.325Z,276.00
2022-11-22T11:25:49.321Z,280.00
2022-11-22T11:26:49.304Z,244.00
2022-11-22T11:27:49.298Z,208.00
2022-11-22T11:28:49.307Z,200.00
2022-11-22T11:29:49.299Z,204.00
2022-11-22T11:30:49.294Z,224.00
2022-11-22T11:31:49.288Z,200.00
2022-11-22T11:32:49.293Z,208.00
2022-11-22T11:33:49.294Z,200.00
2022-11-22T11:34:49.300Z,220.00
2022-11-22T11:35:49.281Z,296.00
2022-11-22T11:36:49.401Z,320.00
2022-11-22T11:37:49.272Z,288.00
2022-11-22T11:38:49.272Z,268.00
2022-11-22T11:39:49.260Z,252.00
2022-11-22T11:40:49.268Z,264.00
2022-11-22T11:41:49.251Z,272.00
2022-11-22T11:42:49.264Z,308.00
2022-11-22T11:43:49.262Z,272.00
2022-11-22T11:44:49.251Z,232.00
2022-11-22T11:45:49.241Z,144.00
2022-11-22T11:46:49.251Z,124.00
2022-11-22T11:47:49.237Z,128.00
2022-11-22T11:48:49.232Z,224.00
2022-11-22T11:49:49.236Z,264.00
2022-11-22T11:50:49.231Z,240.00
2022-11-22T11:51:49.216Z,212.00
2022-11-22T11:52:49.343Z,204.00
2022-11-22T11:53:49.215Z,212.00
2022-11-22T11:54:49.212Z,260.00
2022-11-22T11:55:49.205Z,176.00
2022-11-22T11:56:49.212Z,156.00
2022-11-22T11:57:49.192Z,132.00
2022-11-22T11:58:49.194Z,120.00
2022-11-22T11:59:49.207Z,128.00
2022-11-22T12:00:49.188Z,128.00
2022-11-22T12:01:49.577Z,128.00
2022-11-22T12:02:49.274Z,116.00
2022-11-22T12:03:49.180Z,116.00
2022-11-22T12:04:49.183Z,116.00
2022-11-22T12:05:49.177Z,124.00
2022-11-22T12:06:49.160Z,116.00
2022-11-22T12:07:49.198Z,132.00
2022-11-22T12:08:49.299Z,140.00
2022-11-22T12:09:49.176Z,164.00
2022-11-22T12:10:49.150Z,220.00
2022-11-22T12:11:49.146Z,208.00
2022-11-22T12:12:49.147Z,224.00
2022-11-22T12:14:12.815Z,256.00
2022-11-22T12:15:10.252Z,288.00
2022-11-22T12:15:49.119Z,268.00
2022-11-22T12:16:49.125Z,228.00
2022-11-22T12:17:49.115Z,232.00
2022-11-22T12:18:49.116Z,212.00
2022-11-22T12:19:49.107Z,192.00
2022-11-22T12:20:49.110Z,200.00
2022-11-22T12:21:49.107Z,180.00
2022-11-22T12:22:50.540Z,168.00
2022-11-22T12:23:51.028Z,172.00
2022-11-22T12:25:16.511Z,200.00
2022-11-22T12:25:49.079Z,260.00
2022-11-22T12:26:49.088Z,236.00
2022-11-22T12:27:49.087Z,232.00
2022-11-22T12:28:49.104Z,204.00
2022-11-22T12:29:49.071Z,180.00
2022-11-22T12:30:49.075Z,172.00
2022-11-22T12:31:49.069Z,144.00
2022-11-22T12:32:49.080Z,140.00
2022-11-22T12:33:49.051Z,140.00
2022-11-22T12:34:49.070Z,128.00
2022-11-22T12:35:49.044Z,112.00
2022-11-22T12:36:49.051Z,108.00
2022-11-22T12:37:49.037Z,104.00
2022-11-22T12:38:49.041Z,124.00
2022-11-22T12:39:49.033Z,128.00
2022-11-22T12:40:49.147Z,136.00
2022-11-22T12:41:49.061Z,132.00
2022-11-22T12:42:49.026Z,128.00
2022-11-22T12:43:49.014Z,132.00
2022-11-22T12:44:49.013Z,120.00
2022-11-22T12:45:49.133Z,128.00
2022-11-22T12:46:48.999Z,160.00
2022-11-22T12:47:49.007Z,180.00
2022-11-22T12:48:49.372Z,152.00
2022-11-22T12:49:48.995Z,188.00
2022-11-22T12:50:48.994Z,188.00
2022-11-22T12:51:48.989Z,180.00
2022-11-22T12:52:48.982Z,184.00
2022-11-22T12:53:48.976Z,188.00
2022-11-22T12:54:48.972Z,172.00
2022-11-22T12:55:48.984Z,164.00
2022-11-22T12:56:49.088Z,168.00
2022-11-22T12:57:48.960Z,148.00
2022-11-22T12:58:48.955Z,152.00
2022-11-22T12:59:48.966Z,148.00
2022-11-22T13:00:49.111Z,116.00
2022-11-22T13:01:49.009Z,108.00
2022-11-22T13:02:50.448Z,104.00